Terminal Aerodrome Forecast
Issued by NWS

Home | Current Version | Previous Version | Text Only | Print | Product List | Glossary On
Versions: 1 2 3 4 5 6 7 8 9 10 11 12 13 14 15 16 17 18
000
FTUS43 KDDC 241120
TAFHYS
TAF
KHYS 241120Z 2412/2512 24006KT P6SM SKC
     FM241800 34015KT 6SM -SHRA OVC025
     FM242300 34010KT P6SM -RA OVC020
     FM250400 34011KT 5SM -RA OVC025=

USA.gov is the U.S. government's official web portal to all federal, state and local government web resources and services.